sensor_id;sensor_type;location;lat;lon;timestamp;P1;durP1;ratioP1;P2;durP2;ratioP2
20619;SDS011;10469;42.720;23.252;2023-03-26T00:00:44;0.60;;;0.60;;
20619;SDS011;10469;42.720;23.252;2023-03-26T00:03:12;0.75;;;0.75;;
20619;SDS011;10469;42.720;23.252;2023-03-26T00:05:39;1.02;;;1.00;;
20619;SDS011;10469;42.720;23.252;2023-03-26T00:08:05;0.70;;;0.70;;
20619;SDS011;10469;42.720;23.252;2023-03-26T00:10:36;0.68;;;0.68;;
20619;SDS011;10469;42.720;23.252;2023-03-26T00:13:04;0.55;;;0.55;;
20619;SDS011;10469;42.720;23.252;2023-03-26T00:15:30;1.05;;;0.90;;
20619;SDS011;10469;42.720;23.252;2023-03-26T00:17:57;0.70;;;0.70;;
20619;SDS011;10469;42.720;23.252;2023-03-26T00:20:24;0.70;;;0.70;;
20619;SDS011;10469;42.720;23.252;2023-03-26T00:22:51;0.60;;;0.60;;
20619;SDS011;10469;42.720;23.252;2023-03-26T00:25:19;0.80;;;0.80;;
20619;SDS011;10469;42.720;23.252;2023-03-26T00:27:46;2.75;;;0.75;;
20619;SDS011;10469;42.720;23.252;2023-03-26T00:30:13;0.57;;;0.57;;
20619;SDS011;10469;42.720;23.252;2023-03-26T00:32:39;0.65;;;0.65;;
20619;SDS011;10469;42.720;23.252;2023-03-26T00:35:05;0.60;;;0.60;;
20619;SDS011;10469;42.720;23.252;2023-03-26T00:37:31;0.60;;;0.60;;
20619;SDS011;10469;42.720;23.252;2023-03-26T00:39:58;1.15;;;0.98;;
20619;SDS011;10469;42.720;23.252;2023-03-26T00:42:28;0.85;;;0.85;;
20619;SDS011;10469;42.720;23.252;2023-03-26T00:44:54;0.65;;;0.65;;
20619;SDS011;10469;42.720;23.252;2023-03-26T00:47:22;0.90;;;0.90;;
20619;SDS011;10469;42.720;23.252;2023-03-26T00:49:53;0.60;;;0.60;;
20619;SDS011;10469;42.720;23.252;2023-03-26T00:52:20;0.70;;;0.70;;
20619;SDS011;10469;42.720;23.252;2023-03-26T00:54:51;0.80;;;0.80;;
20619;SDS011;10469;42.720;23.252;2023-03-26T00:57:17;0.63;;;0.63;;
20619;SDS011;10469;42.720;23.252;2023-03-26T00:59:49;0.80;;;0.80;;
20619;SDS011;10469;42.720;23.252;2023-03-26T01:02:16;0.70;;;0.70;;
20619;SDS011;10469;42.720;23.252;2023-03-26T01:04:55;0.60;;;0.60;;
20619;SDS011;10469;42.720;23.252;2023-03-26T01:07:25;0.60;;;0.60;;
20619;SDS011;10469;42.720;23.252;2023-03-26T01:09:53;0.70;;;0.70;;
20619;SDS011;10469;42.720;23.252;2023-03-26T01:12:22;1.00;;;0.82;;
20619;SDS011;10469;42.720;23.252;2023-03-26T01:14:50;0.75;;;0.75;;
20619;SDS011;10469;42.720;23.252;2023-03-26T01:17:19;0.60;;;0.60;;
20619;SDS011;10469;42.720;23.252;2023-03-26T01:22:19;0.60;;;0.60;;
20619;SDS011;10469;42.720;23.252;2023-03-26T01:24:46;0.80;;;0.80;;
20619;SDS011;10469;42.720;23.252;2023-03-26T01:27:27;1.08;;;1.08;;
20619;SDS011;10469;42.720;23.252;2023-03-26T01:38:18;0.77;;;0.77;;
20619;SDS011;10469;42.720;23.252;2023-03-26T01:40:58;0.80;;;0.80;;
20619;SDS011;10469;42.720;23.252;2023-03-26T01:46:23;0.93;;;0.93;;
20619;SDS011;10469;42.720;23.252;2023-03-26T01:48:50;2.42;;;0.90;;
20619;SDS011;10469;42.720;23.252;2023-03-26T01:51:29;1.00;;;1.00;;
20619;SDS011;10469;42.720;23.252;2023-03-26T01:53:57;0.68;;;0.68;;
20619;SDS011;10469;42.720;23.252;2023-03-26T02:04:31;0.70;;;0.70;;
20619;SDS011;10469;42.720;23.252;2023-03-26T02:09:34;0.73;;;0.73;;
20619;SDS011;10469;42.720;23.252;2023-03-26T02:12:05;0.80;;;0.80;;
20619;SDS011;10469;42.720;23.252;2023-03-26T02:14:33;0.85;;;0.85;;
20619;SDS011;10469;42.720;23.252;2023-03-26T02:16:59;2.22;;;0.90;;
20619;SDS011;10469;42.720;23.252;2023-03-26T02:19:25;1.00;;;1.00;;
20619;SDS011;10469;42.720;23.252;2023-03-26T02:21:51;0.77;;;0.77;;
20619;SDS011;10469;42.720;23.252;2023-03-26T02:24:17;0.90;;;0.90;;
20619;SDS011;10469;42.720;23.252;2023-03-26T02:26:43;1.20;;;1.10;;
20619;SDS011;10469;42.720;23.252;2023-03-26T02:29:09;4.82;;;0.90;;
20619;SDS011;10469;42.720;23.252;2023-03-26T02:31:36;1.17;;;1.17;;
20619;SDS011;10469;42.720;23.252;2023-03-26T02:34:02;0.90;;;0.90;;
20619;SDS011;10469;42.720;23.252;2023-03-26T02:36:27;0.80;;;0.80;;
20619;SDS011;10469;42.720;23.252;2023-03-26T02:38:54;1.15;;;1.05;;
20619;SDS011;10469;42.720;23.252;2023-03-26T02:41:21;1.10;;;1.08;;
20619;SDS011;10469;42.720;23.252;2023-03-26T02:43:47;0.80;;;0.80;;
20619;SDS011;10469;42.720;23.252;2023-03-26T02:46:13;1.00;;;1.00;;
20619;SDS011;10469;42.720;23.252;2023-03-26T02:48:38;0.90;;;0.90;;
20619;SDS011;10469;42.720;23.252;2023-03-26T02:51:05;0.85;;;0.85;;
20619;SDS011;10469;42.720;23.252;2023-03-26T02:53:31;1.17;;;1.08;;
20619;SDS011;10469;42.720;23.252;2023-03-26T02:55:57;1.02;;;1.02;;
20619;SDS011;10469;42.720;23.252;2023-03-26T02:58:25;1.00;;;1.00;;
20619;SDS011;10469;42.720;23.252;2023-03-26T03:00:51;1.00;;;1.00;;
20619;SDS011;10469;42.720;23.252;2023-03-26T03:03:21;1.17;;;1.10;;
20619;SDS011;10469;42.720;23.252;2023-03-26T03:05:49;1.27;;;1.17;;
20619;SDS011;10469;42.720;23.252;2023-03-26T03:08:16;1.85;;;1.15;;
20619;SDS011;10469;42.720;23.252;2023-03-26T03:10:42;1.00;;;1.00;;
20619;SDS011;10469;42.720;23.252;2023-03-26T03:13:08;1.48;;;1.35;;
20619;SDS011;10469;42.720;23.252;2023-03-26T03:15:34;1.13;;;1.10;;
20619;SDS011;10469;42.720;23.252;2023-03-26T03:17:59;1.92;;;1.20;;
20619;SDS011;10469;42.720;23.252;2023-03-26T03:20:25;0.98;;;0.98;;
20619;SDS011;10469;42.720;23.252;2023-03-26T03:22:50;1.55;;;1.45;;
20619;SDS011;10469;42.720;23.252;2023-03-26T03:25:16;1.35;;;1.25;;
20619;SDS011;10469;42.720;23.252;2023-03-26T03:27:42;1.27;;;1.23;;
20619;SDS011;10469;42.720;23.252;2023-03-26T03:30:08;0.88;;;0.88;;
20619;SDS011;10469;42.720;23.252;2023-03-26T03:32:36;1.45;;;1.35;;
20619;SDS011;10469;42.720;23.252;2023-03-26T03:35:02;1.10;;;1.10;;
20619;SDS011;10469;42.720;23.252;2023-03-26T03:37:28;1.25;;;1.17;;
20619;SDS011;10469;42.720;23.252;2023-03-26T03:39:53;1.35;;;1.20;;
20619;SDS011;10469;42.720;23.252;2023-03-26T03:42:19;1.30;;;1.20;;
20619;SDS011;10469;42.720;23.252;2023-03-26T03:44:45;1.70;;;1.45;;
20619;SDS011;10469;42.720;23.252;2023-03-26T03:47:10;1.20;;;1.10;;
20619;SDS011;10469;42.720;23.252;2023-03-26T03:49:38;1.60;;;1.50;;
20619;SDS011;10469;42.720;23.252;2023-03-26T03:52:04;1.17;;;1.17;;
20619;SDS011;10469;42.720;23.252;2023-03-26T03:54:30;1.55;;;1.33;;
20619;SDS011;10469;42.720;23.252;2023-03-26T03:56:56;6.72;;;1.38;;
20619;SDS011;10469;42.720;23.252;2023-03-26T03:59:22;1.75;;;1.38;;
20619;SDS011;10469;42.720;23.252;2023-03-26T04:01:48;2.00;;;1.38;;
20619;SDS011;10469;42.720;23.252;2023-03-26T04:04:15;1.67;;;1.58;;
20619;SDS011;10469;42.720;23.252;2023-03-26T04:06:41;1.58;;;1.52;;
20619;SDS011;10469;42.720;23.252;2023-03-26T04:09:06;1.67;;;1.58;;
20619;SDS011;10469;42.720;23.252;2023-03-26T04:11:34;1.40;;;1.30;;
20619;SDS011;10469;42.720;23.252;2023-03-26T04:14:00;2.13;;;1.75;;
20619;SDS011;10469;42.720;23.252;2023-03-26T04:16:26;1.73;;;1.63;;
20619;SDS011;10469;42.720;23.252;2023-03-26T04:18:51;2.53;;;1.73;;
20619;SDS011;10469;42.720;23.252;2023-03-26T04:21:17;1.38;;;1.27;;
20619;SDS011;10469;42.720;23.252;2023-03-26T04:23:43;1.60;;;1.50;;
20619;SDS011;10469;42.720;23.252;2023-03-26T04:26:11;1.45;;;1.35;;
20619;SDS011;10469;42.720;23.252;2023-03-26T04:28:44;2.22;;;2.00;;
20619;SDS011;10469;42.720;23.252;2023-03-26T04:31:20;1.65;;;1.50;;
20619;SDS011;10469;42.720;23.252;2023-03-26T04:33:48;1.75;;;1.65;;
20619;SDS011;10469;42.720;23.252;2023-03-26T04:36:18;1.75;;;1.65;;
20619;SDS011;10469;42.720;23.252;2023-03-26T04:38:48;1.92;;;1.80;;
20619;SDS011;10469;42.720;23.252;2023-03-26T04:41:16;1.70;;;1.60;;
20619;SDS011;10469;42.720;23.252;2023-03-26T04:43:41;4.03;;;1.92;;
20619;SDS011;10469;42.720;23.252;2023-03-26T04:46:14;2.17;;;1.88;;
20619;SDS011;10469;42.720;23.252;2023-03-26T04:48:45;1.95;;;1.65;;
20619;SDS011;10469;42.720;23.252;2023-03-26T04:51:15;1.98;;;1.88;;
20619;SDS011;10469;42.720;23.252;2023-03-26T04:53:48;1.98;;;1.70;;
20619;SDS011;10469;42.720;23.252;2023-03-26T04:56:24;1.80;;;1.65;;
20619;SDS011;10469;42.720;23.252;2023-03-26T04:59:03;2.95;;;2.17;;
20619;SDS011;10469;42.720;23.252;2023-03-26T05:01:30;2.83;;;2.30;;
20619;SDS011;10469;42.720;23.252;2023-03-26T05:03:56;1.85;;;1.73;;
20619;SDS011;10469;42.720;23.252;2023-03-26T05:06:23;3.95;;;2.38;;
20619;SDS011;10469;42.720;23.252;2023-03-26T05:08:53;2.90;;;2.58;;
20619;SDS011;10469;42.720;23.252;2023-03-26T05:11:19;2.63;;;2.00;;
20619;SDS011;10469;42.720;23.252;2023-03-26T05:13:44;2.53;;;2.20;;
20619;SDS011;10469;42.720;23.252;2023-03-26T05:16:11;3.25;;;2.53;;
20619;SDS011;10469;42.720;23.252;2023-03-26T05:18:37;3.60;;;3.05;;
20619;SDS011;10469;42.720;23.252;2023-03-26T05:21:03;3.35;;;2.50;;
20619;SDS011;10469;42.720;23.252;2023-03-26T05:23:29;3.67;;;2.42;;
20619;SDS011;10469;42.720;23.252;2023-03-26T05:25:55;2.88;;;2.45;;
20619;SDS011;10469;42.720;23.252;2023-03-26T05:28:22;3.40;;;2.70;;
20619;SDS011;10469;42.720;23.252;2023-03-26T05:30:52;3.22;;;2.63;;
20619;SDS011;10469;42.720;23.252;2023-03-26T05:33:19;3.00;;;2.47;;
20619;SDS011;10469;42.720;23.252;2023-03-26T05:35:45;2.55;;;2.35;;
20619;SDS011;10469;42.720;23.252;2023-03-26T05:38:13;3.33;;;3.03;;
20619;SDS011;10469;42.720;23.252;2023-03-26T05:40:39;5.22;;;3.40;;
20619;SDS011;10469;42.720;23.252;2023-03-26T05:43:05;5.93;;;2.72;;
20619;SDS011;10469;42.720;23.252;2023-03-26T05:45:30;3.40;;;3.00;;
20619;SDS011;10469;42.720;23.252;2023-03-26T05:47:56;2.92;;;2.65;;
20619;SDS011;10469;42.720;23.252;2023-03-26T05:50:21;6.03;;;3.30;;
20619;SDS011;10469;42.720;23.252;2023-03-26T05:52:47;4.40;;;3.38;;
20619;SDS011;10469;42.720;23.252;2023-03-26T05:55:12;4.38;;;3.05;;
20619;SDS011;10469;42.720;23.252;2023-03-26T05:57:38;4.93;;;3.35;;
20619;SDS011;10469;42.720;23.252;2023-03-26T06:00:04;4.57;;;3.45;;
20619;SDS011;10469;42.720;23.252;2023-03-26T06:02:35;3.97;;;2.72;;
20619;SDS011;10469;42.720;23.252;2023-03-26T06:05:01;3.33;;;2.75;;
20619;SDS011;10469;42.720;23.252;2023-03-26T06:07:28;4.60;;;3.17;;
20619;SDS011;10469;42.720;23.252;2023-03-26T06:09:55;2.88;;;2.33;;
20619;SDS011;10469;42.720;23.252;2023-03-26T06:12:20;3.72;;;2.83;;
20619;SDS011;10469;42.720;23.252;2023-03-26T06:14:46;3.63;;;2.60;;
20619;SDS011;10469;42.720;23.252;2023-03-26T06:17:12;2.95;;;2.65;;
20619;SDS011;10469;42.720;23.252;2023-03-26T06:19:38;4.28;;;2.85;;
20619;SDS011;10469;42.720;23.252;2023-03-26T06:22:04;3.20;;;2.78;;
20619;SDS011;10469;42.720;23.252;2023-03-26T06:24:30;3.42;;;2.90;;
20619;SDS011;10469;42.720;23.252;2023-03-26T06:26:56;3.35;;;3.03;;
20619;SDS011;10469;42.720;23.252;2023-03-26T06:29:23;3.58;;;2.70;;
20619;SDS011;10469;42.720;23.252;2023-03-26T06:31:49;3.00;;;2.67;;
20619;SDS011;10469;42.720;23.252;2023-03-26T06:34:14;3.15;;;2.47;;
20619;SDS011;10469;42.720;23.252;2023-03-26T06:36:40;5.10;;;3.42;;
20619;SDS011;10469;42.720;23.252;2023-03-26T06:39:05;3.15;;;2.85;;
20619;SDS011;10469;42.720;23.252;2023-03-26T06:41:32;4.60;;;3.17;;
20619;SDS011;10469;42.720;23.252;2023-03-26T06:43:58;3.25;;;2.95;;
20619;SDS011;10469;42.720;23.252;2023-03-26T06:46:24;3.60;;;2.83;;
20619;SDS011;10469;42.720;23.252;2023-03-26T06:48:50;3.65;;;2.58;;
20619;SDS011;10469;42.720;23.252;2023-03-26T06:51:16;5.10;;;3.45;;
20619;SDS011;10469;42.720;23.252;2023-03-26T06:53:42;3.55;;;3.17;;
20619;SDS011;10469;42.720;23.252;2023-03-26T06:56:07;4.28;;;2.95;;
20619;SDS011;10469;42.720;23.252;2023-03-26T06:58:33;4.55;;;3.38;;
20619;SDS011;10469;42.720;23.252;2023-03-26T07:00:59;4.38;;;3.45;;
20619;SDS011;10469;42.720;23.252;2023-03-26T07:03:25;3.92;;;3.08;;
20619;SDS011;10469;42.720;23.252;2023-03-26T07:05:50;3.83;;;2.88;;
20619;SDS011;10469;42.720;23.252;2023-03-26T07:08:16;3.60;;;3.03;;
20619;SDS011;10469;42.720;23.252;2023-03-26T07:10:41;3.92;;;2.85;;
20619;SDS011;10469;42.720;23.252;2023-03-26T07:13:07;4.55;;;3.10;;
20619;SDS011;10469;42.720;23.252;2023-03-26T08:21:54;2.50;;;2.20;;
20619;SDS011;10469;42.720;23.252;2023-03-26T08:24:29;2.63;;;2.10;;
20619;SDS011;10469;42.720;23.252;2023-03-26T08:30:08;2.00;;;1.80;;
20619;SDS011;10469;42.720;23.252;2023-03-26T08:32:40;4.80;;;1.70;;
20619;SDS011;10469;42.720;23.252;2023-03-26T08:35:06;2.10;;;1.90;;
20619;SDS011;10469;42.720;23.252;2023-03-26T08:37:35;2.45;;;1.90;;
20619;SDS011;10469;42.720;23.252;2023-03-26T08:40:01;2.03;;;1.70;;
20619;SDS011;10469;42.720;23.252;2023-03-26T08:55:36;2.85;;;1.92;;
20619;SDS011;10469;42.720;23.252;2023-03-26T08:58:15;2.65;;;1.90;;
20619;SDS011;10469;42.720;23.252;2023-03-26T09:26:25;1.55;;;1.45;;
20619;SDS011;10469;42.720;23.252;2023-03-26T09:29:00;1.40;;;1.30;;
20619;SDS011;10469;42.720;23.252;2023-03-26T09:34:38;1.60;;;1.50;;
20619;SDS011;10469;42.720;23.252;2023-03-26T09:40:18;1.25;;;1.15;;
20619;SDS011;10469;42.720;23.252;2023-03-26T09:49:19;2.78;;;1.52;;
20619;SDS011;10469;42.720;23.252;2023-03-26T09:54:13;1.30;;;1.20;;
20619;SDS011;10469;42.720;23.252;2023-03-26T10:00:25;1.08;;;1.02;;
20619;SDS011;10469;42.720;23.252;2023-03-26T10:03:09;1.20;;;1.08;;
20619;SDS011;10469;42.720;23.252;2023-03-26T10:05:54;0.70;;;0.70;;
20619;SDS011;10469;42.720;23.252;2023-03-26T10:21:58;0.90;;;0.90;;
20619;SDS011;10469;42.720;23.252;2023-03-26T10:40:31;1.55;;;1.10;;
20619;SDS011;10469;42.720;23.252;2023-03-26T10:52:14;1.52;;;0.70;;
20619;SDS011;10469;42.720;23.252;2023-03-26T10:59:45;0.55;;;0.55;;
20619;SDS011;10469;42.720;23.252;2023-03-26T11:02:27;0.70;;;0.70;;
20619;SDS011;10469;42.720;23.252;2023-03-26T11:05:01;0.80;;;0.80;;
20619;SDS011;10469;42.720;23.252;2023-03-26T11:15:46;0.95;;;0.95;;
20619;SDS011;10469;42.720;23.252;2023-03-26T11:18:32;0.70;;;0.70;;
20619;SDS011;10469;42.720;23.252;2023-03-26T11:24:33;0.80;;;0.80;;
20619;SDS011;10469;42.720;23.252;2023-03-26T11:31:50;1.15;;;1.05;;
20619;SDS011;10469;42.720;23.252;2023-03-26T11:34:29;1.05;;;0.90;;
20619;SDS011;10469;42.720;23.252;2023-03-26T11:37:02;0.90;;;0.90;;
20619;SDS011;10469;42.720;23.252;2023-03-26T11:39:37;0.80;;;0.80;;
20619;SDS011;10469;42.720;23.252;2023-03-26T11:42:11;2.17;;;1.05;;
20619;SDS011;10469;42.720;23.252;2023-03-26T11:45:02;1.20;;;0.88;;
20619;SDS011;10469;42.720;23.252;2023-03-26T11:47:49;0.90;;;0.80;;
20619;SDS011;10469;42.720;23.252;2023-03-26T11:50:25;1.48;;;0.93;;
20619;SDS011;10469;42.720;23.252;2023-03-26T11:52:58;0.50;;;0.50;;
20619;SDS011;10469;42.720;23.252;2023-03-26T11:55:35;0.75;;;0.75;;
20619;SDS011;10469;42.720;23.252;2023-03-26T11:58:05;9.70;;;1.38;;
20619;SDS011;10469;42.720;23.252;2023-03-26T12:00:46;0.70;;;0.70;;
20619;SDS011;10469;42.720;23.252;2023-03-26T12:03:15;0.90;;;0.90;;
20619;SDS011;10469;42.720;23.252;2023-03-26T12:05:48;0.88;;;0.80;;
20619;SDS011;10469;42.720;23.252;2023-03-26T12:08:26;1.90;;;1.00;;
20619;SDS011;10469;42.720;23.252;2023-03-26T12:10:59;0.65;;;0.65;;
20619;SDS011;10469;42.720;23.252;2023-03-26T12:13:40;0.85;;;0.80;;
20619;SDS011;10469;42.720;23.252;2023-03-26T12:16:16;0.60;;;0.60;;
20619;SDS011;10469;42.720;23.252;2023-03-26T12:18:44;0.63;;;0.63;;
20619;SDS011;10469;42.720;23.252;2023-03-26T12:24:01;0.70;;;0.70;;
20619;SDS011;10469;42.720;23.252;2023-03-26T12:29:11;0.82;;;0.82;;
20619;SDS011;10469;42.720;23.252;2023-03-26T12:31:39;1.13;;;1.05;;
20619;SDS011;10469;42.720;23.252;2023-03-26T12:34:29;0.88;;;0.70;;
20619;SDS011;10469;42.720;23.252;2023-03-26T12:37:02;0.65;;;0.60;;
20619;SDS011;10469;42.720;23.252;2023-03-26T12:39:32;2.35;;;0.93;;
20619;SDS011;10469;42.720;23.252;2023-03-26T12:42:01;2.80;;;2.35;;
20619;SDS011;10469;42.720;23.252;2023-03-26T12:44:28;1.95;;;0.80;;
20619;SDS011;10469;42.720;23.252;2023-03-26T12:49:48;0.60;;;0.60;;
20619;SDS011;10469;42.720;23.252;2023-03-26T12:57:53;1.15;;;0.70;;
20619;SDS011;10469;42.720;23.252;2023-03-26T13:06:04;0.60;;;0.60;;
20619;SDS011;10469;42.720;23.252;2023-03-26T13:08:54;0.55;;;0.52;;
20619;SDS011;10469;42.720;23.252;2023-03-26T13:14:10;2.35;;;1.08;;
20619;SDS011;10469;42.720;23.252;2023-03-26T13:17:16;1.10;;;0.75;;
20619;SDS011;10469;42.720;23.252;2023-03-26T13:23:09;0.50;;;0.50;;
20619;SDS011;10469;42.720;23.252;2023-03-26T13:26:10;0.50;;;0.50;;
20619;SDS011;10469;42.720;23.252;2023-03-26T13:28:49;0.70;;;0.70;;
20619;SDS011;10469;42.720;23.252;2023-03-26T13:37:24;0.60;;;0.60;;
20619;SDS011;10469;42.720;23.252;2023-03-26T13:45:29;0.73;;;0.73;;
20619;SDS011;10469;42.720;23.252;2023-03-26T13:48:11;0.50;;;0.50;;
20619;SDS011;10469;42.720;23.252;2023-03-26T13:50:42;0.77;;;0.70;;
20619;SDS011;10469;42.720;23.252;2023-03-26T13:55:48;0.70;;;0.70;;
20619;SDS011;10469;42.720;23.252;2023-03-26T13:58:20;3.50;;;0.75;;
20619;SDS011;10469;42.720;23.252;2023-03-26T14:00:57;0.60;;;0.60;;
20619;SDS011;10469;42.720;23.252;2023-03-26T14:03:26;0.70;;;0.70;;
20619;SDS011;10469;42.720;23.252;2023-03-26T14:09:10;0.77;;;0.77;;
20619;SDS011;10469;42.720;23.252;2023-03-26T14:17:42;0.70;;;0.70;;
20619;SDS011;10469;42.720;23.252;2023-03-26T14:22:56;0.70;;;0.70;;
20619;SDS011;10469;42.720;23.252;2023-03-26T14:26:02;0.60;;;0.60;;
20619;SDS011;10469;42.720;23.252;2023-03-26T14:31:31;0.80;;;0.80;;
20619;SDS011;10469;42.720;23.252;2023-03-26T14:34:10;1.48;;;0.75;;
20619;SDS011;10469;42.720;23.252;2023-03-26T14:37:06;0.57;;;0.57;;
20619;SDS011;10469;42.720;23.252;2023-03-26T14:42:40;1.17;;;0.90;;
20619;SDS011;10469;42.720;23.252;2023-03-26T14:54:09;0.50;;;0.50;;
20619;SDS011;10469;42.720;23.252;2023-03-26T15:19:23;0.98;;;0.80;;
20619;SDS011;10469;42.720;23.252;2023-03-26T15:33:57;0.70;;;0.70;;
20619;SDS011;10469;42.720;23.252;2023-03-26T16:16:19;1.75;;;1.17;;
20619;SDS011;10469;42.720;23.252;2023-03-26T16:18:56;1.20;;;0.95;;
20619;SDS011;10469;42.720;23.252;2023-03-26T16:21:43;2.60;;;1.00;;
20619;SDS011;10469;42.720;23.252;2023-03-26T16:33:31;1.75;;;1.23;;
20619;SDS011;10469;42.720;23.252;2023-03-26T16:38:48;1.77;;;1.58;;
20619;SDS011;10469;42.720;23.252;2023-03-26T16:46:59;2.20;;;1.35;;
20619;SDS011;10469;42.720;23.252;2023-03-26T17:00:25;3.38;;;1.60;;
20619;SDS011;10469;42.720;23.252;2023-03-26T17:02:55;1.85;;;1.52;;
20619;SDS011;10469;42.720;23.252;2023-03-26T17:05:42;1.75;;;1.55;;
20619;SDS011;10469;42.720;23.252;2023-03-26T17:08:32;3.75;;;2.15;;
20619;SDS011;10469;42.720;23.252;2023-03-26T17:14:05;3.03;;;1.45;;
20619;SDS011;10469;42.720;23.252;2023-03-26T17:16:47;3.60;;;1.85;;
20619;SDS011;10469;42.720;23.252;2023-03-26T17:32:56;3.60;;;2.50;;
20619;SDS011;10469;42.720;23.252;2023-03-26T17:35:40;4.03;;;2.03;;
20619;SDS011;10469;42.720;23.252;2023-03-26T17:40:52;7.35;;;2.65;;
20619;SDS011;10469;42.720;23.252;2023-03-26T17:48:39;6.80;;;3.08;;
20619;SDS011;10469;42.720;23.252;2023-03-26T17:54:16;2.75;;;2.40;;
20619;SDS011;10469;42.720;23.252;2023-03-26T17:56:44;5.20;;;2.78;;
20619;SDS011;10469;42.720;23.252;2023-03-26T17:59:14;4.65;;;2.80;;
20619;SDS011;10469;42.720;23.252;2023-03-26T18:01:48;7.70;;;3.25;;
20619;SDS011;10469;42.720;23.252;2023-03-26T18:04:23;6.40;;;3.03;;
20619;SDS011;10469;42.720;23.252;2023-03-26T18:18:14;2.25;;;1.77;;
20619;SDS011;10469;42.720;23.252;2023-03-26T18:20:47;2.50;;;1.73;;
20619;SDS011;10469;42.720;23.252;2023-03-26T18:23:25;1.85;;;1.73;;
20619;SDS011;10469;42.720;23.252;2023-03-26T18:26:09;2.67;;;2.10;;
20619;SDS011;10469;42.720;23.252;2023-03-26T18:28:41;2.45;;;2.20;;
20619;SDS011;10469;42.720;23.252;2023-03-26T18:31:17;4.90;;;2.58;;
20619;SDS011;10469;42.720;23.252;2023-03-26T18:33:46;4.47;;;2.33;;
20619;SDS011;10469;42.720;23.252;2023-03-26T18:36:13;2.95;;;2.03;;
20619;SDS011;10469;42.720;23.252;2023-03-26T18:38:40;2.85;;;2.20;;
20619;SDS011;10469;42.720;23.252;2023-03-26T18:41:08;4.90;;;2.38;;
20619;SDS011;10469;42.720;23.252;2023-03-26T18:43:45;2.38;;;1.40;;
20619;SDS011;10469;42.720;23.252;2023-03-26T18:46:11;1.98;;;1.55;;
20619;SDS011;10469;42.720;23.252;2023-03-26T18:48:37;2.05;;;1.83;;
20619;SDS011;10469;42.720;23.252;2023-03-26T18:51:04;4.53;;;1.95;;
20619;SDS011;10469;42.720;23.252;2023-03-26T18:53:36;3.83;;;1.55;;
20619;SDS011;10469;42.720;23.252;2023-03-26T18:59:10;1.30;;;1.10;;
20619;SDS011;10469;42.720;23.252;2023-03-26T19:01:44;3.38;;;1.83;;
20619;SDS011;10469;42.720;23.252;2023-03-26T19:04:12;1.95;;;1.52;;
20619;SDS011;10469;42.720;23.252;2023-03-26T19:06:40;2.50;;;1.63;;
20619;SDS011;10469;42.720;23.252;2023-03-26T19:09:07;1.77;;;1.65;;
20619;SDS011;10469;42.720;23.252;2023-03-26T19:11:37;2.10;;;1.65;;
20619;SDS011;10469;42.720;23.252;2023-03-26T19:14:05;2.28;;;2.03;;
20619;SDS011;10469;42.720;23.252;2023-03-26T19:16:37;1.67;;;1.38;;
20619;SDS011;10469;42.720;23.252;2023-03-26T19:19:07;3.20;;;1.90;;
20619;SDS011;10469;42.720;23.252;2023-03-26T19:21:38;3.28;;;2.00;;
20619;SDS011;10469;42.720;23.252;2023-03-26T19:24:05;3.85;;;2.40;;
20619;SDS011;10469;42.720;23.252;2023-03-26T19:26:31;4.43;;;2.72;;
20619;SDS011;10469;42.720;23.252;2023-03-26T19:28:58;3.42;;;1.90;;
20619;SDS011;10469;42.720;23.252;2023-03-26T19:31:34;13.05;;;3.33;;
20619;SDS011;10469;42.720;23.252;2023-03-26T19:34:48;18.30;;;6.93;;
20619;SDS011;10469;42.720;23.252;2023-03-26T19:37:03;11.68;;;7.53;;
20619;SDS011;10469;42.720;23.252;2023-03-26T19:39:43;17.20;;;7.78;;
20619;SDS011;10469;42.720;23.252;2023-03-26T19:45:02;13.68;;;7.47;;
20619;SDS011;10469;42.720;23.252;2023-03-26T19:47:39;16.13;;;7.53;;
20619;SDS011;10469;42.720;23.252;2023-03-26T19:50:25;16.08;;;6.93;;
20619;SDS011;10469;42.720;23.252;2023-03-26T19:53:31;16.50;;;7.80;;
20619;SDS011;10469;42.720;23.252;2023-03-26T19:55:57;16.80;;;7.25;;
20619;SDS011;10469;42.720;23.252;2023-03-26T19:58:27;13.18;;;7.18;;
20619;SDS011;10469;42.720;23.252;2023-03-26T20:00:53;14.23;;;6.30;;
20619;SDS011;10469;42.720;23.252;2023-03-26T20:03:20;14.95;;;6.25;;
20619;SDS011;10469;42.720;23.252;2023-03-26T20:06:11;14.02;;;6.22;;
20619;SDS011;10469;42.720;23.252;2023-03-26T20:08:39;21.67;;;6.55;;
20619;SDS011;10469;42.720;23.252;2023-03-26T20:11:05;13.13;;;6.20;;
20619;SDS011;10469;42.720;23.252;2023-03-26T20:13:38;13.68;;;6.50;;
20619;SDS011;10469;42.720;23.252;2023-03-26T20:16:23;17.83;;;7.07;;
20619;SDS011;10469;42.720;23.252;2023-03-26T20:18:51;9.90;;;5.63;;
20619;SDS011;10469;42.720;23.252;2023-03-26T20:21:17;13.25;;;6.03;;
20619;SDS011;10469;42.720;23.252;2023-03-26T20:23:43;15.45;;;6.30;;
20619;SDS011;10469;42.720;23.252;2023-03-26T20:26:10;10.18;;;6.22;;
20619;SDS011;10469;42.720;23.252;2023-03-26T20:28:37;12.18;;;6.40;;
20619;SDS011;10469;42.720;23.252;2023-03-26T20:31:03;11.55;;;5.35;;
20619;SDS011;10469;42.720;23.252;2023-03-26T20:33:28;10.95;;;5.68;;
20619;SDS011;10469;42.720;23.252;2023-03-26T20:35:55;18.13;;;5.63;;
20619;SDS011;10469;42.720;23.252;2023-03-26T20:38:22;15.23;;;5.07;;
20619;SDS011;10469;42.720;23.252;2023-03-26T20:40:51;12.10;;;5.57;;
20619;SDS011;10469;42.720;23.252;2023-03-26T20:43:17;7.68;;;4.88;;
20619;SDS011;10469;42.720;23.252;2023-03-26T20:45:45;8.13;;;4.75;;
20619;SDS011;10469;42.720;23.252;2023-03-26T20:48:12;9.38;;;4.63;;
20619;SDS011;10469;42.720;23.252;2023-03-26T20:50:39;17.45;;;5.47;;
20619;SDS011;10469;42.720;23.252;2023-03-26T20:53:13;16.75;;;6.38;;
20619;SDS011;10469;42.720;23.252;2023-03-26T20:55:41;13.07;;;5.50;;
20619;SDS011;10469;42.720;23.252;2023-03-26T20:58:12;10.02;;;5.65;;
20619;SDS011;10469;42.720;23.252;2023-03-26T21:00:39;13.30;;;5.82;;
20619;SDS011;10469;42.720;23.252;2023-03-26T21:03:10;12.25;;;5.35;;
20619;SDS011;10469;42.720;23.252;2023-03-26T21:05:38;10.20;;;4.75;;
20619;SDS011;10469;42.720;23.252;2023-03-26T21:08:05;16.75;;;6.22;;
20619;SDS011;10469;42.720;23.252;2023-03-26T21:10:32;10.02;;;5.07;;
20619;SDS011;10469;42.720;23.252;2023-03-26T21:13:08;11.68;;;5.63;;
20619;SDS011;10469;42.720;23.252;2023-03-26T21:15:38;9.93;;;5.43;;
20619;SDS011;10469;42.720;23.252;2023-03-26T21:18:04;11.20;;;5.57;;
20619;SDS011;10469;42.720;23.252;2023-03-26T21:20:30;18.55;;;5.85;;
20619;SDS011;10469;42.720;23.252;2023-03-26T21:23:02;9.57;;;4.97;;
20619;SDS011;10469;42.720;23.252;2023-03-26T21:28:37;11.65;;;5.25;;
20619;SDS011;10469;42.720;23.252;2023-03-26T21:31:15;4.93;;;3.70;;
20619;SDS011;10469;42.720;23.252;2023-03-26T21:33:44;5.97;;;3.53;;
20619;SDS011;10469;42.720;23.252;2023-03-26T21:36:12;8.32;;;3.40;;
20619;SDS011;10469;42.720;23.252;2023-03-26T21:38:38;5.18;;;3.03;;
20619;SDS011;10469;42.720;23.252;2023-03-26T21:41:08;5.25;;;3.00;;
20619;SDS011;10469;42.720;23.252;2023-03-26T21:43:40;3.70;;;2.50;;
20619;SDS011;10469;42.720;23.252;2023-03-26T21:46:05;7.18;;;3.35;;
20619;SDS011;10469;42.720;23.252;2023-03-26T21:48:32;4.95;;;2.67;;
20619;SDS011;10469;42.720;23.252;2023-03-26T21:50:57;7.88;;;3.10;;
20619;SDS011;10469;42.720;23.252;2023-03-26T21:53:27;10.68;;;3.55;;
20619;SDS011;10469;42.720;23.252;2023-03-26T22:04:05;6.10;;;2.20;;
20619;SDS011;10469;42.720;23.252;2023-03-26T22:06:40;5.45;;;3.00;;
20619;SDS011;10469;42.720;23.252;2023-03-26T22:09:14;4.15;;;2.72;;